Time;durP1;ratioP1;P1;durP2;ratioP2;P2;SDS_P1;SDS_P2;PMS_P1;PMS_P2;Temp;Humidity;BMP_temperature;BMP_pressure;BME280_temperature;BME280_humidity;BME280_pressure;Samples;Min_cycle;Max_cycle;Signal;HPM_P1;HPM_P2
2021/03/19 00:02:10;;;;;;;12.75;7.93;;;1.50;70.70;;;;;;5053978;28;20281;-75
2021/03/19 00:04:36;;;;;;;12.45;6.25;;;1.40;71.40;;;;;;5053978;28;20595;-75
2021/03/19 00:07:03;;;;;;;9.20;5.90;;;1.40;71.90;;;;;;5053976;28;20541;-75
2021/03/19 00:09:30;;;;;;;13.48;6.78;;;1.50;72.10;;;;;;5053847;28;20183;-75
2021/03/19 00:11:58;;;;;;;10.10;6.15;;;1.50;72.30;;;;;;5054066;28;20578;-75
2021/03/19 00:14:25;;;;;;;11.85;6.57;;;1.50;72.70;;;;;;5053797;28;20273;-75
2021/03/19 00:16:52;;;;;;;9.15;5.45;;;1.50;72.10;;;;;;5053787;28;20206;-76
2021/03/19 00:19:19;;;;;;;8.45;5.78;;;1.60;71.30;;;;;;5054235;28;20518;-75
2021/03/19 00:21:46;;;;;;;9.65;4.90;;;1.60;70.60;;;;;;5053465;28;20289;-76
2021/03/19 00:24:13;;;;;;;8.98;6.18;;;1.60;70.80;;;;;;5054341;28;20194;-75
2021/03/19 00:26:41;;;;;;;9.73;6.15;;;1.60;70.70;;;;;;5053542;28;20225;-75
2021/03/19 00:29:09;;;;;;;9.40;5.93;;;1.40;71.30;;;;;;5053837;28;20230;-75
2021/03/19 00:31:36;;;;;;;8.38;5.22;;;1.30;72.20;;;;;;5053515;28;20278;-75
2021/03/19 00:34:03;;;;;;;11.88;5.35;;;1.30;73.00;;;;;;5053560;28;20324;-75
2021/03/19 00:36:30;;;;;;;12.43;6.45;;;1.20;73.40;;;;;;5053196;28;20292;-75
2021/03/19 00:38:57;;;;;;;10.05;5.50;;;1.20;73.90;;;;;;5053583;28;20684;-76
2021/03/19 00:41:24;;;;;;;10.50;7.80;;;1.30;73.90;;;;;;5053234;28;20186;-75
2021/03/19 00:43:51;;;;;;;13.10;6.95;;;1.40;73.60;;;;;;5053771;28;20251;-75
2021/03/19 00:46:18;;;;;;;7.10;5.38;;;1.40;72.70;;;;;;5053398;28;20256;-76
2021/03/19 00:48:45;;;;;;;9.02;5.55;;;1.40;73.00;;;;;;5053815;28;20225;-75
2021/03/19 00:51:13;;;;;;;9.52;6.82;;;1.50;73.20;;;;;;5053094;28;20281;-75
2021/03/19 00:53:40;;;;;;;9.32;5.28;;;1.60;72.40;;;;;;5053036;28;20775;-75
2021/03/19 00:56:07;;;;;;;9.60;5.80;;;1.60;72.70;;;;;;5052835;28;20194;-75
2021/03/19 00:58:34;;;;;;;7.57;4.50;;;1.70;71.80;;;;;;5053276;28;20186;-75
2021/03/19 01:01:01;;;;;;;9.38;6.28;;;1.70;71.20;;;;;;5053086;28;20228;-75
2021/03/19 01:03:28;;;;;;;8.73;6.00;;;1.80;71.10;;;;;;5053258;28;20195;-75
2021/03/19 01:05:55;;;;;;;10.60;5.90;;;1.80;72.20;;;;;;5052699;28;20205;-75
2021/03/19 01:08:22;;;;;;;10.73;7.15;;;1.80;72.90;;;;;;5053261;28;20194;-76
2021/03/19 01:10:52;;;;;;;8.02;5.45;;;1.90;72.90;;;;;;5053018;28;20214;-76
2021/03/19 01:13:19;;;;;;;9.55;6.82;;;1.90;73.00;;;;;;5052968;28;20195;-75
2021/03/19 01:15:46;;;;;;;10.20;6.72;;;1.80;71.60;;;;;;5051794;28;20214;-75
2021/03/19 01:18:15;;;;;;;8.82;6.28;;;1.70;72.80;;;;;;5052828;28;20695;-75
2021/03/19 01:20:45;;;;;;;9.90;5.78;;;1.50;73.20;;;;;;5052748;28;20191;-75
2021/03/19 01:23:12;;;;;;;7.97;5.32;;;1.40;74.40;;;;;;5053167;28;20644;-75
2021/03/19 01:25:40;;;;;;;10.30;5.90;;;1.30;75.60;;;;;;5052440;28;20194;-75
2021/03/19 01:28:07;;;;;;;8.23;6.13;;;1.20;75.50;;;;;;5052712;28;20202;-75
2021/03/19 01:30:36;;;;;;;8.20;5.55;;;1.20;75.10;;;;;;5052657;28;20555;-75
2021/03/19 01:33:03;;;;;;;8.13;5.32;;;1.20;76.00;;;;;;5052979;28;20592;-75
2021/03/19 01:35:32;;;;;;;8.68;5.75;;;1.20;75.50;;;;;;5052313;28;20183;-75
2021/03/19 01:38:00;;;;;;;9.15;6.22;;;1.20;76.10;;;;;;5052643;28;20252;-75
2021/03/19 01:40:31;;;;;;;9.13;5.68;;;1.20;76.00;;;;;;5052240;28;20186;-75
2021/03/19 01:42:59;;;;;;;9.50;5.88;;;1.20;76.30;;;;;;5052577;28;20255;-75
2021/03/19 01:46:17;;;;;;;8.45;5.60;;;1.20;76.40;;;;;;5052178;28;20526;-75
2021/03/19 01:49:22;;;;;;;10.57;5.50;;;1.20;75.80;;;;;;5032743;28;20198;-75
2021/03/19 01:52:26;;;;;;;9.15;6.50;;;1.30;75.90;;;;;;5032443;28;20655;-74
2021/03/19 01:55:29;;;;;;;10.63;5.90;;;1.40;76.00;;;;;;5041304;28;20193;-75
2021/03/19 01:58:33;;;;;;;9.48;5.07;;;1.50;74.90;;;;;;5051645;28;20253;-75
2021/03/19 02:01:37;;;;;;;8.45;5.68;;;1.30;74.50;;;;;;5052295;28;20220;-74
2021/03/19 02:04:41;;;;;;;10.57;5.97;;;1.30;75.40;;;;;;5051925;28;20252;-75
2021/03/19 02:07:45;;;;;;;8.75;5.25;;;1.30;75.50;;;;;;5051285;28;20206;-75
2021/03/19 02:10:49;;;;;;;7.97;5.88;;;1.30;75.30;;;;;;5032506;28;20183;-76
2021/03/19 02:13:53;;;;;;;11.52;5.82;;;1.30;74.50;;;;;;5043506;28;20259;-76
2021/03/19 02:16:57;;;;;;;10.13;6.38;;;1.20;74.70;;;;;;5052227;28;20225;-76
2021/03/19 02:20:03;;;;;;;10.32;5.78;;;1.20;74.90;;;;;;5051868;28;20212;-75
2021/03/19 02:23:07;;;;;;;10.95;6.40;;;1.20;74.80;;;;;;5034624;28;20194;-75
2021/03/19 02:26:11;;;;;;;8.63;5.30;;;1.20;74.80;;;;;;5052315;28;20224;-76
2021/03/19 02:29:15;;;;;;;9.00;5.45;;;1.10;74.20;;;;;;5055705;28;20205;-75
2021/03/19 02:32:01;;;;;;;11.68;6.32;;;1.10;73.60;;;;;;5055764;28;20192;-76
2021/03/19 02:34:33;;;;;;;11.30;6.03;;;1.00;73.30;;;;;;5055961;28;20194;-75
2021/03/19 02:37:00;;;;;;;10.63;7.65;;;1.00;73.20;;;;;;5055367;28;20242;-75
2021/03/19 02:39:27;;;;;;;9.65;6.18;;;0.90;73.20;;;;;;5056099;28;20274;-75
2021/03/19 02:41:54;;;;;;;8.40;5.18;;;0.90;73.00;;;;;;5055733;28;20618;-75
2021/03/19 02:44:21;;;;;;;13.23;6.88;;;0.70;73.30;;;;;;5055931;28;20190;-75
2021/03/19 02:46:48;;;;;;;6.53;5.25;;;0.60;74.50;;;;;;5055521;28;20595;-75
2021/03/19 02:49:16;;;;;;;11.55;6.50;;;0.60;73.80;;;;;;5055976;28;20190;-75
2021/03/19 02:51:43;;;;;;;8.90;6.07;;;0.60;73.70;;;;;;5055841;28;20204;-75
2021/03/19 02:54:10;;;;;;;10.00;6.65;;;0.60;73.70;;;;;;5055009;28;20218;-75
2021/03/19 02:56:36;;;;;;;17.45;6.78;;;0.70;73.40;;;;;;5055480;28;20313;-75
2021/03/19 02:59:03;;;;;;;10.85;6.18;;;0.70;73.10;;;;;;5055078;28;20191;-75
2021/03/19 03:01:30;;;;;;;8.65;5.13;;;0.70;72.90;;;;;;5055575;28;20715;-75
2021/03/19 03:03:57;;;;;;;10.57;6.43;;;0.70;72.60;;;;;;5055359;28;20201;-75
2021/03/19 03:06:37;;;;;;;8.93;5.82;;;0.70;72.70;;;;;;5055747;28;20213;-75
2021/03/19 03:09:07;;;;;;;10.52;5.57;;;0.70;72.70;;;;;;5054960;28;20555;-75
2021/03/19 03:11:36;;;;;;;11.18;5.32;;;0.70;72.30;;;;;;5055006;28;20187;-75
2021/03/19 03:14:05;;;;;;;10.55;5.85;;;0.60;72.60;;;;;;5055340;28;20263;-75
2021/03/19 03:16:31;;;;;;;11.77;7.20;;;0.70;72.80;;;;;;5054688;28;20202;-75
2021/03/19 03:18:58;;;;;;;9.70;5.80;;;0.70;72.50;;;;;;5055384;28;20190;-75
2021/03/19 03:21:25;;;;;;;9.48;5.40;;;0.70;72.20;;;;;;5054943;28;20190;-75
2021/03/19 03:23:53;;;;;;;9.35;5.35;;;0.70;72.00;;;;;;5055299;28;20222;-75
2021/03/19 03:26:20;;;;;;;11.43;6.60;;;0.60;71.60;;;;;;5054711;28;20194;-75
2021/03/19 03:28:47;;;;;;;11.60;6.88;;;0.70;71.90;;;;;;5055179;28;20723;-75
2021/03/19 03:31:13;;;;;;;9.98;6.40;;;0.70;71.80;;;;;;5055072;28;20194;-75
2021/03/19 03:33:40;;;;;;;10.35;6.00;;;0.60;71.50;;;;;;5055147;28;20597;-75
2021/03/19 03:36:08;;;;;;;9.38;6.18;;;0.60;71.30;;;;;;5054869;28;20221;-75
2021/03/19 03:38:35;;;;;;;9.65;6.30;;;0.50;71.50;;;;;;5054041;28;20198;-76
2021/03/19 03:41:06;;;;;;;10.75;6.90;;;0.50;71.50;;;;;;5054583;28;20214;-75
2021/03/19 03:43:33;;;;;;;10.23;5.78;;;0.50;71.60;;;;;;5054768;28;20195;-75
2021/03/19 03:46:00;;;;;;;11.43;6.63;;;0.50;71.80;;;;;;5054515;28;20183;-75
2021/03/19 03:48:30;;;;;;;11.07;6.30;;;0.50;72.40;;;;;;5054700;28;20706;-75
2021/03/19 03:50:58;;;;;;;9.10;5.50;;;0.40;72.50;;;;;;5054482;28;20229;-75
2021/03/19 03:53:25;;;;;;;9.57;5.72;;;0.40;72.10;;;;;;5054574;28;20234;-75
2021/03/19 03:55:52;;;;;;;9.90;5.95;;;0.30;72.40;;;;;;5053937;28;20282;-74
2021/03/19 03:58:20;;;;;;;7.88;5.32;;;0.30;72.40;;;;;;5054459;28;20229;-75
2021/03/19 04:00:48;;;;;;;10.93;7.50;;;0.30;72.20;;;;;;5054194;28;20248;-75
2021/03/19 04:03:15;;;;;;;8.45;5.80;;;0.30;72.20;;;;;;5054180;28;20186;-75
2021/03/19 04:05:45;;;;;;;10.20;5.82;;;0.30;72.40;;;;;;5054594;28;20273;-74
2021/03/19 04:08:19;;;;;;;13.75;7.13;;;0.30;72.40;;;;;;5054131;28;20197;-75
2021/03/19 04:10:46;;;;;;;10.40;7.07;;;0.20;72.70;;;;;;5054561;28;20220;-75
2021/03/19 04:13:14;;;;;;;14.07;8.38;;;0.20;73.00;;;;;;5053721;28;20251;-74
2021/03/19 04:15:43;;;;;;;19.75;10.65;;;0.20;72.90;;;;;;5054537;28;20190;-75
2021/03/19 04:18:13;;;;;;;18.33;9.70;;;0.10;73.20;;;;;;5053790;28;20740;-74
2021/03/19 04:20:42;;;;;;;16.52;10.27;;;0.10;73.60;;;;;;5054475;28;20285;-75
2021/03/19 04:23:09;;;;;;;14.55;8.40;;;0.00;73.20;;;;;;5053877;28;20550;-74
2021/03/19 04:25:36;;;;;;;13.52;8.07;;;0.00;73.40;;;;;;5054296;28;20202;-75
2021/03/19 04:28:07;;;;;;;21.85;11.88;;;0.00;73.70;;;;;;5053689;28;20198;-74
2021/03/19 04:30:38;;;;;;;99.60;38.20;;;0.00;73.10;;;;;;5054260;28;20198;-74
2021/03/19 04:33:07;;;;;;;29.45;15.63;;;-0.10;73.00;;;;;;5053474;28;20198;-75
2021/03/19 04:35:35;;;;;;;14.02;7.78;;;-0.10;73.30;;;;;;5054105;28;20539;-75
2021/03/19 04:38:06;;;;;;;12.18;6.90;;;-0.20;72.50;;;;;;5053260;28;20225;-74
2021/03/19 04:40:34;;;;;;;26.17;16.30;;;-0.30;72.20;;;;;;5054141;28;20284;-74
2021/03/19 04:43:03;;;;;;;42.80;23.23;;;-0.30;72.80;;;;;;5053199;28;20252;-74
2021/03/19 04:45:30;;;;;;;69.47;29.48;;;-0.30;72.90;;;;;;5053839;28;20645;-74
2021/03/19 04:47:58;;;;;;;94.35;38.80;;;-0.30;72.90;;;;;;5053514;28;20194;-74
2021/03/19 04:50:25;;;;;;;72.53;32.15;;;-0.30;73.30;;;;;;5053311;28;20187;-74
2021/03/19 04:52:52;;;;;;;46.45;22.55;;;-0.40;73.40;;;;;;5053279;28;20222;-76
2021/03/19 04:55:20;;;;;;;39.75;19.70;;;-0.40;73.30;;;;;;5053561;28;20197;-75
2021/03/19 04:57:46;;;;;;;34.65;18.52;;;-0.40;72.70;;;;;;5053458;28;20229;-75
2021/03/19 05:00:15;;;;;;;53.08;25.33;;;-0.40;72.30;;;;;;5053048;28;20182;-74
2021/03/19 05:02:44;;;;;;;30.13;13.82;;;-0.40;71.90;;;;;;5053586;28;20194;-74
2021/03/19 05:05:13;;;;;;;12.73;7.90;;;-0.40;71.60;;;;;;5053080;28;20252;-74
2021/03/19 05:07:41;;;;;;;18.20;9.88;;;-0.30;71.70;;;;;;5053734;28;20552;-74
2021/03/19 05:10:10;;;;;;;18.83;10.25;;;-0.30;71.10;;;;;;5052845;28;20197;-75
2021/03/19 05:12:37;;;;;;;32.00;14.52;;;-0.30;71.60;;;;;;5053248;28;20210;-74
2021/03/19 05:15:06;;;;;;;11.38;7.70;;;-0.30;70.40;;;;;;5053266;28;20195;-74
2021/03/19 05:17:34;;;;;;;11.65;5.80;;;-0.30;69.80;;;;;;5052886;28;20573;-74
2021/03/19 05:20:01;;;;;;;8.35;4.95;;;-0.40;69.70;;;;;;5052782;28;20736;-74
2021/03/19 05:22:27;;;;;;;9.15;5.25;;;-0.40;69.80;;;;;;5053319;28;20569;-74
2021/03/19 05:24:55;;;;;;;10.70;6.10;;;-0.50;69.50;;;;;;5053114;28;20617;-75
2021/03/19 05:27:24;;;;;;;9.57;5.30;;;-0.50;69.80;;;;;;5053096;28;20191;-75
2021/03/19 05:29:54;;;;;;;7.05;4.10;;;-0.50;70.00;;;;;;5052366;28;20241;-75
2021/03/19 05:32:21;;;;;;;11.68;6.00;;;-0.50;70.40;;;;;;5052848;28;20642;-74
2021/03/19 05:34:48;;;;;;;14.20;7.03;;;-0.50;70.60;;;;;;5052596;28;20191;-75
2021/03/19 05:37:15;;;;;;;19.95;8.57;;;-0.50;70.60;;;;;;5052735;28;20218;-74
2021/03/19 05:39:42;;;;;;;10.27;5.97;;;-0.50;71.50;;;;;;5052117;28;20189;-74
2021/03/19 05:42:16;;;;;;;16.13;8.93;;;-0.40;71.40;;;;;;5052865;28;20212;-75
2021/03/19 05:44:45;;;;;;;10.25;7.13;;;-0.40;71.80;;;;;;5052513;28;20218;-74
2021/03/19 05:47:14;;;;;;;8.90;5.82;;;-0.40;71.70;;;;;;5053861;28;20257;-74
2021/03/19 05:49:41;;;;;;;9.43;5.30;;;-0.30;72.20;;;;;;5049890;28;20190;-74
2021/03/19 05:52:20;;;;;;;10.15;6.95;;;-0.20;72.50;;;;;;5050926;28;20780;-74
2021/03/19 05:54:48;;;;;;;9.77;5.90;;;-0.20;71.60;;;;;;5050662;28;20652;-74
2021/03/19 05:57:25;;;;;;;10.60;5.85;;;-0.10;72.00;;;;;;5050820;28;20218;-74
2021/03/19 05:59:54;;;;;;;11.15;7.10;;;-0.10;71.10;;;;;;5049882;28;20182;-76
2021/03/19 06:02:25;;;;;;;11.45;7.13;;;-0.10;71.90;;;;;;5049381;28;20221;-75
2021/03/19 06:05:11;;;;;;;9.20;6.45;;;0.00;72.00;;;;;;5050987;28;20186;-75
2021/03/19 06:07:41;;;;;;;9.43;5.82;;;0.00;71.50;;;;;;5051148;28;20206;-75
2021/03/19 06:10:33;;;;;;;10.88;7.07;;;0.10;72.20;;;;;;5050527;28;20225;-75
2021/03/19 06:13:21;;;;;;;11.93;5.85;;;0.10;72.00;;;;;;5050789;28;20256;-75
2021/03/19 06:15:54;;;;;;;9.50;6.13;;;0.10;72.60;;;;;;5047602;28;20206;-75
2021/03/19 06:18:26;;;;;;;8.68;5.88;;;0.20;72.80;;;;;;5050432;28;20218;-75
2021/03/19 06:20:56;;;;;;;9.45;5.05;;;0.30;71.70;;;;;;5050394;28;20651;-75
2021/03/19 06:23:26;;;;;;;9.05;4.40;;;0.40;70.50;;;;;;5051158;28;20206;-75
2021/03/19 06:26:05;;;;;;;6.35;4.22;;;0.40;67.60;;;;;;5050678;28;20186;-75
2021/03/19 06:28:37;;;;;;;9.07;5.97;;;0.30;68.20;;;;;;5050738;28;20198;-75
2021/03/19 06:31:25;;;;;;;5.53;3.42;;;0.10;67.30;;;;;;5049838;28;20640;-76
2021/03/19 06:34:13;;;;;;;8.48;5.38;;;0.00;68.30;;;;;;5050999;28;20197;-75
2021/03/19 06:37:07;;;;;;;7.78;4.60;;;0.00;68.50;;;;;;5047452;28;20198;-75
2021/03/19 06:39:48;;;;;;;6.72;4.28;;;0.00;68.40;;;;;;5048319;28;20208;-75
2021/03/19 06:42:32;;;;;;;8.80;5.28;;;0.00;69.20;;;;;;5046314;28;20217;-75
2021/03/19 06:45:17;;;;;;;12.13;5.95;;;0.10;69.20;;;;;;5050250;28;20190;-75
2021/03/19 06:47:47;;;;;;;10.40;6.20;;;0.20;69.00;;;;;;5048317;28;20193;-75
2021/03/19 06:50:35;;;;;;;8.30;5.53;;;0.40;67.90;;;;;;5050373;28;20519;-75
2021/03/19 06:53:21;;;;;;;8.35;5.32;;;0.50;67.40;;;;;;5049227;28;20682;-75
2021/03/19 06:55:51;;;;;;;8.85;4.78;;;0.50;68.70;;;;;;5049774;28;20197;-75
2021/03/19 06:58:32;;;;;;;10.00;5.40;;;0.60;67.20;;;;;;5049870;28;20742;-75
2021/03/19 07:01:04;;;;;;;7.28;4.70;;;0.60;68.60;;;;;;5046871;28;20544;-75
2021/03/19 07:04:04;;;;;;;9.13;6.07;;;0.60;67.30;;;;;;5049692;28;20191;-75
2021/03/19 07:06:52;;;;;;;8.48;5.00;;;0.60;66.80;;;;;;5050338;28;20251;-75
2021/03/19 07:09:34;;;;;;;7.93;4.88;;;0.60;66.70;;;;;;5045550;28;20186;-75
2021/03/19 07:12:27;;;;;;;10.75;5.65;;;0.50;66.70;;;;;;5050037;28;20202;-75
2021/03/19 07:15:10;;;;;;;9.48;5.65;;;0.60;66.70;;;;;;5053271;28;20202;-75
2021/03/19 07:17:56;;;;;;;11.13;6.35;;;0.60;67.10;;;;;;5050949;28;20226;-75
2021/03/19 07:20:52;;;;;;;6.75;4.90;;;0.60;66.40;;;;;;5050936;28;20190;-75
2021/03/19 07:23:21;;;;;;;8.30;5.10;;;0.70;66.20;;;;;;5053333;28;20644;-75
2021/03/19 07:25:59;;;;;;;8.85;4.95;;;0.80;65.90;;;;;;5053508;28;20194;-75
2021/03/19 07:29:02;;;;;;;9.30;4.60;;;0.80;66.30;;;;;;5048161;28;20240;-75
2021/03/19 07:31:42;;;;;;;8.55;5.38;;;0.90;66.50;;;;;;5051632;28;20673;-75
2021/03/19 07:34:50;;;;;;;12.32;6.65;;;1.10;66.50;;;;;;5049671;28;20198;-75
2021/03/19 07:37:49;;;;;;;9.27;6.32;;;1.30;65.70;;;;;;5031423;28;20277;-75
2021/03/19 07:40:31;;;;;;;12.63;6.18;;;1.70;65.50;;;;;;5052688;28;20202;-75
2021/03/19 07:43:22;;;;;;;8.75;5.35;;;2.00;65.20;;;;;;5050294;28;20191;-75
2021/03/19 07:46:06;;;;;;;9.20;5.28;;;2.30;63.60;;;;;;5049609;28;21575;-75
2021/03/19 07:49:00;;;;;;;7.47;4.47;;;2.60;61.60;;;;;;5052304;28;20273;-76
2021/03/19 07:51:37;;;;;;;7.78;4.93;;;3.30;61.10;;;;;;5050112;28;20183;-76
2021/03/19 07:54:13;;;;;;;8.60;5.47;;;3.90;61.50;;;;;;5054480;28;20222;-76
2021/03/19 07:56:52;;;;;;;6.32;4.45;;;4.60;58.50;;;;;;5055149;28;20198;-76
2021/03/19 07:59:34;;;;;;;8.05;5.60;;;5.40;57.20;;;;;;5054858;28;20328;-76
2021/03/19 08:02:27;;;;;;;8.38;5.53;;;6.00;54.50;;;;;;5055371;28;20198;-76
2021/03/19 08:05:05;;;;;;;6.63;4.97;;;6.10;51.60;;;;;;5055220;28;20209;-77
2021/03/19 08:07:37;;;;;;;8.07;6.15;;;6.00;50.70;;;;;;5055128;28;20194;-76
2021/03/19 08:10:10;;;;;;;6.93;5.22;;;5.90;51.70;;;;;;5055239;28;20195;-76
2021/03/19 08:12:48;;;;;;;8.20;5.80;;;6.00;51.20;;;;;;5054986;28;20191;-76
2021/03/19 08:15:30;;;;;;;8.43;5.47;;;6.00;50.80;;;;;;5055239;28;20285;-76
2021/03/19 08:18:02;;;;;;;9.23;5.97;;;6.20;51.60;;;;;;5054997;28;20595;-76
2021/03/19 08:21:01;;;;;;;9.98;6.50;;;6.30;50.90;;;;;;5055016;28;20217;-76
2021/03/19 08:23:40;;;;;;;7.85;5.18;;;6.40;49.40;;;;;;5054873;28;20202;-75
2021/03/19 08:26:15;;;;;;;7.78;5.30;;;6.60;49.10;;;;;;5054639;28;20205;-76
2021/03/19 08:28:49;;;;;;;8.93;5.78;;;7.30;50.80;;;;;;5054863;28;20189;-75
2021/03/19 08:31:24;;;;;;;6.88;6.00;;;8.40;48.20;;;;;;5054897;28;20191;-76
2021/03/19 08:34:01;;;;;;;7.28;5.80;;;9.60;44.50;;;;;;5054850;28;20240;-76
2021/03/19 08:36:40;;;;;;;9.70;5.80;;;10.80;41.30;;;;;;5054507;28;20190;-77
2021/03/19 08:39:18;;;;;;;8.02;6.03;;;12.00;39.80;;;;;;5054456;28;20202;-77
2021/03/19 08:41:48;;;;;;;7.70;5.72;;;12.90;35.50;;;;;;5054774;28;20186;-76
2021/03/19 08:44:17;;;;;;;6.22;5.03;;;13.10;33.90;;;;;;5054512;28;20216;-76
2021/03/19 08:46:48;;;;;;;8.20;6.03;;;12.90;33.60;;;;;;5069664;28;20198;-77
2021/03/19 08:49:31;;;;;;;5.82;5.03;;;12.90;33.00;;;;;;5054712;28;20201;-77
2021/03/19 08:51:59;;;;;;;7.72;6.13;;;12.80;33.40;;;;;;5054401;28;20193;-77
2021/03/19 08:54:29;;;;;;;9.25;6.00;;;12.60;33.30;;;;;;5053999;28;20222;-77
2021/03/19 08:57:32;;;;;;;9.43;6.43;;;12.10;33.20;;;;;;5054165;28;20218;-76
2021/03/19 08:59:59;;;;;;;11.52;6.10;;;11.50;34.20;;;;;;5053875;28;20236;-75
2021/03/19 09:03:01;;;;;;;10.13;6.18;;;11.50;36.30;;;;;;5054038;28;20198;-76
2021/03/19 09:05:34;;;;;;;9.00;5.88;;;12.70;36.20;;;;;;5053846;28;20197;-76
2021/03/19 09:08:49;;;;;;;8.23;6.50;;;13.60;34.20;;;;;;5053884;28;20197;-76
2021/03/19 09:11:18;;;;;;;7.72;6.50;;;14.60;32.50;;;;;;5011238;28;20290;-76
2021/03/19 09:14:16;;;;;;;8.98;7.30;;;15.00;30.20;;;;;;5011597;28;20198;-76
2021/03/19 09:16:51;;;;;;;10.15;6.50;;;15.00;30.60;;;;;;5044343;28;20264;-76
2021/03/19 09:20:01;;;;;;;10.70;7.40;;;14.70;29.90;;;;;;5053997;28;20202;-77
2021/03/19 09:22:46;;;;;;;10.63;7.13;;;14.50;30.30;;;;;;5043467;28;20222;-77
2021/03/19 09:25:42;;;;;;;8.13;6.65;;;14.70;30.90;;;;;;5053216;28;20190;-76
2021/03/19 09:28:31;;;;;;;11.20;7.10;;;15.50;32.20;;;;;;5053740;28;20237;-76
2021/03/19 09:31:03;;;;;;;8.88;6.25;;;16.00;28.90;;;;;;5051130;28;20202;-76
2021/03/19 09:34:15;;;;;;;7.93;6.43;;;16.20;28.80;;;;;;5049933;28;20205;-76
2021/03/19 09:37:32;;;;;;;10.07;7.20;;;16.70;29.30;;;;;;5015602;28;20240;-76
2021/03/19 09:40:14;;;;;;;8.30;6.50;;;17.70;27.90;;;;;;5049639;28;20795;-76
2021/03/19 09:42:53;;;;;;;10.23;7.20;;;17.80;26.10;;;;;;5051503;28;20754;-76
2021/03/19 09:45:38;;;;;;;9.85;8.43;;;17.40;26.30;;;;;;5052478;28;20190;-76
2021/03/19 09:48:28;;;;;;;9.60;8.60;;;17.10;26.90;;;;;;5050046;28;20202;-76
2021/03/19 09:51:14;;;;;;;9.40;8.40;;;16.70;25.80;;;;;;5052011;28;20509;-77
2021/03/19 09:53:42;;;;;;;10.07;8.00;;;16.60;26.90;;;;;;5051051;28;20567;-76
2021/03/19 09:56:19;;;;;;;11.40;8.77;;;16.50;27.70;;;;;;5052023;28;20441;-76
2021/03/19 09:58:48;;;;;;;9.93;7.93;;;16.00;27.30;;;;;;5051606;28;20842;-76
2021/03/19 10:01:30;;;;;;;9.80;8.73;;;15.40;27.00;;;;;;5052067;28;20785;-76
2021/03/19 10:04:01;;;;;;;10.05;8.70;;;15.30;27.60;;;;;;5052082;28;20449;-76
2021/03/19 10:06:32;;;;;;;9.43;7.50;;;15.10;27.70;;;;;;5051988;28;20639;-77
2021/03/19 10:09:17;;;;;;;13.25;10.98;;;15.50;27.50;;;;;;5051383;28;20305;-77
2021/03/19 10:11:59;;;;;;;8.97;7.93;;;16.20;29.60;;;;;;5052002;28;20205;-76
2021/03/19 10:14:33;;;;;;;8.80;7.83;;;18.10;29.00;;;;;;5051686;28;20452;-76
2021/03/19 10:17:22;;;;;;;8.63;6.57;;;19.60;26.00;;;;;;5051750;28;20802;-76
2021/03/19 10:19:51;;;;;;;8.10;7.30;;;20.20;24.00;;;;;;5049561;28;20429;-76
2021/03/19 10:22:34;;;;;;;10.13;8.30;;;21.00;22.70;;;;;;5051935;28;20448;-77
2021/03/19 10:25:27;;;;;;;9.70;8.43;;;21.30;22.00;;;;;;5051911;28;20518;-76
2021/03/19 10:27:56;;;;;;;9.60;8.63;;;21.60;22.60;;;;;;5051316;28;20432;-77
2021/03/19 10:30:27;;;;;;;8.20;7.40;;;21.80;20.20;;;;;;5051561;28;20476;-76
2021/03/19 10:33:13;;;;;;;9.57;8.47;;;22.40;20.10;;;;;;5051797;28;20451;-76
2021/03/19 10:35:44;;;;;;;10.00;8.90;;;24.40;22.10;;;;;;5050696;28;20441;-77
2021/03/19 10:38:19;;;;;;;10.00;9.00;;;25.90;19.60;;;;;;5050296;28;20539;-76
2021/03/19 10:40:50;;;;;;;8.80;7.20;;;25.00;17.50;;;;;;5051589;28;20540;-76
2021/03/19 10:43:19;;;;;;;10.03;9.03;;;23.40;17.60;;;;;;5051555;28;20437;-76
2021/03/19 10:45:52;;;;;;;10.13;8.77;;;21.90;17.90;;;;;;5051740;28;20494;-76
2021/03/19 10:48:37;;;;;;;10.10;9.10;;;20.80;19.40;;;;;;5050741;28;20444;-76
2021/03/19 10:51:13;;;;;;;10.37;9.27;;;19.80;19.40;;;;;;5055508;28;20432;-75
2021/03/19 10:53:49;;;;;;;13.00;9.10;;;18.90;20.60;;;;;;5055160;28;20479;-76
2021/03/19 10:56:17;;;;;;;12.73;8.27;;;19.30;24.00;;;;;;5055135;28;20437;-75
2021/03/19 10:58:49;;;;;;;8.10;7.30;;;22.80;25.70;;;;;;5054610;28;20492;-76
2021/03/19 11:01:44;;;;;;;8.20;6.57;;;26.80;21.30;;;;;;5055120;28;20953;-76
2021/03/19 11:04:36;;;;;;;8.20;7.37;;;28.60;16.50;;;;;;5019538;28;20445;-77
2021/03/19 11:07:33;;;;;;;8.80;7.63;;;30.30;16.90;;;;;;5053379;28;20448;-77
2021/03/19 11:10:02;;;;;;;13.13;8.40;;;32.20;14.30;;;;;;5052382;28;20797;-77
2021/03/19 11:12:33;;;;;;;8.03;7.33;;;32.30;13.40;;;;;;5054833;28;20499;-78
2021/03/19 11:15:03;;;;;;;8.47;7.60;;;32.70;13.40;;;;;;5054733;28;20455;-77
2021/03/19 11:17:32;;;;;;;7.30;6.60;;;32.40;12.80;;;;;;5054602;28;20487;-76
2021/03/19 11:20:01;;;;;;;8.13;7.20;;;31.30;11.70;;;;;;5054452;28;20445;-76
2021/03/19 11:22:34;;;;;;;14.83;8.83;;;29.60;12.20;;;;;;5054666;28;20950;-76
2021/03/19 11:25:44;;;;;;;6.90;6.20;;;27.50;12.40;;;;;;5054899;28;20437;-76
2021/03/19 11:28:38;;;;;;;8.87;7.60;;;24.80;13.70;;;;;;4992496;28;20442;-76
2021/03/19 11:31:21;;;;;;;7.83;7.03;;;22.50;15.10;;;;;;5052942;28;20441;-75
2021/03/19 11:33:57;;;;;;;8.73;7.20;;;20.50;16.70;;;;;;5054276;28;20437;-76
2021/03/19 11:36:25;;;;;;;8.70;7.67;;;18.80;19.60;;;;;;5051306;28;20429;-76
2021/03/19 11:38:53;;;;;;;9.17;8.27;;;17.40;21.50;;;;;;5054400;28;20586;-75
2021/03/19 11:41:35;;;;;;;9.97;8.97;;;16.20;23.00;;;;;;5054469;28;20487;-76
2021/03/19 11:44:02;;;;;;;8.73;7.40;;;15.10;25.00;;;;;;5052323;28;20509;-75
2021/03/19 11:46:30;;;;;;;9.00;6.85;;;14.00;25.40;;;;;;5054357;28;20441;-75
2021/03/19 11:48:57;;;;;;;8.73;7.03;;;13.00;26.30;;;;;;5054041;28;20209;-76
2021/03/19 11:51:30;;;;;;;8.73;7.10;;;12.10;28.00;;;;;;5054284;28;20213;-76
2021/03/19 11:53:57;;;;;;;11.75;8.68;;;11.40;29.00;;;;;;5053728;28;20325;-75
2021/03/19 11:56:24;;;;;;;8.30;7.32;;;10.80;30.50;;;;;;5054470;28;20194;-75
2021/03/19 11:58:50;;;;;;;10.05;7.93;;;10.30;31.80;;;;;;5052843;28;20222;-75
2021/03/19 12:01:17;;;;;;;11.45;9.52;;;9.80;34.00;;;;;;5054387;28;20236;-75
2021/03/19 12:03:46;;;;;;;10.10;7.38;;;9.20;35.10;;;;;;5053828;28;20195;-74
2021/03/19 12:06:16;;;;;;;12.23;9.50;;;8.70;36.60;;;;;;5053902;28;20202;-74
2021/03/19 12:08:45;;;;;;;11.38;9.25;;;8.40;38.00;;;;;;5053432;28;20210;-74
2021/03/19 12:11:20;;;;;;;12.88;9.82;;;7.90;40.20;;;;;;5053192;28;20226;-74
2021/03/19 12:13:47;;;;;;;11.82;10.05;;;7.40;42.40;;;;;;5053578;28;20281;-74
2021/03/19 12:16:14;;;;;;;11.25;7.85;;;7.30;44.10;;;;;;5052807;28;20198;-74
2021/03/19 12:18:40;;;;;;;9.52;7.72;;;7.30;44.90;;;;;;5052960;28;20305;-73
2021/03/19 12:21:07;;;;;;;8.25;6.55;;;7.50;45.80;;;;;;5053222;28;20225;-74
2021/03/19 12:23:34;;;;;;;8.18;7.38;;;7.80;46.60;;;;;;5053546;28;20201;-74
2021/03/19 12:26:01;;;;;;;8.40;7.20;;;8.70;46.20;;;;;;5053128;28;20187;-74
2021/03/19 12:28:28;;;;;;;7.93;5.95;;;11.10;43.30;;;;;;5053060;28;20268;-74
2021/03/19 12:30:56;;;;;;;7.40;5.80;;;11.90;36.30;;;;;;5052745;28;20201;-75
2021/03/19 12:33:24;;;;;;;7.05;6.32;;;12.00;38.30;;;;;;5053079;28;20629;-74
2021/03/19 12:35:52;;;;;;;7.90;6.38;;;15.00;35.00;;;;;;5052908;28;20198;-75
2021/03/19 12:38:19;;;;;;;6.82;6.13;;;18.40;30.50;;;;;;5052685;28;20253;-75
2021/03/19 12:40:52;;;;;;;7.57;6.63;;;20.70;25.80;;;;;;5049008;28;20213;-75
2021/03/19 12:43:20;;;;;;;8.60;7.00;;;22.40;24.30;;;;;;5051691;28;20524;-75
2021/03/19 12:45:46;;;;;;;6.20;5.50;;;24.40;23.00;;;;;;5052170;28;20433;-75
2021/03/19 12:48:13;;;;;;;6.60;5.87;;;25.30;19.70;;;;;;5052125;28;20479;-74
2021/03/19 12:50:40;;;;;;;6.23;5.60;;;25.70;21.10;;;;;;5051743;28;21005;-75
2021/03/19 12:53:10;;;;;;;6.40;5.70;;;27.10;19.80;;;;;;5052152;28;20456;-75
2021/03/19 12:55:37;;;;;;;6.43;5.70;;;28.30;18.70;;;;;;5048978;28;20503;-76
2021/03/19 12:58:04;;;;;;;7.00;6.30;;;29.50;18.20;;;;;;5052428;28;20487;-75
2021/03/19 13:00:34;;;;;;;9.50;8.13;;;30.30;16.60;;;;;;5052833;28;20459;-76
2021/03/19 13:03:01;;;;;;;8.83;7.97;;;30.50;14.90;;;;;;5052343;28;20441;-76
2021/03/19 13:05:30;;;;;;;7.50;6.80;;;30.10;15.30;;;;;;5051560;28;20437;-76
2021/03/19 13:07:57;;;;;;;7.53;6.83;;;27.40;15.10;;;;;;5052510;28;20954;-76
2021/03/19 13:10:25;;;;;;;7.10;6.40;;;24.80;17.10;;;;;;5052250;28;20433;-76
2021/03/19 13:12:51;;;;;;;7.27;6.30;;;22.60;17.40;;;;;;5052206;28;20448;-76
2021/03/19 13:15:20;;;;;;;9.60;7.73;;;20.70;19.00;;;;;;5052751;28;20444;-75
2021/03/19 13:17:48;;;;;;;7.77;6.93;;;19.10;19.70;;;;;;5052516;28;20491;-75
2021/03/19 13:20:16;;;;;;;8.10;7.20;;;17.80;21.00;;;;;;5052290;28;20530;-75
2021/03/19 13:22:43;;;;;;;6.90;6.00;;;16.60;22.40;;;;;;5052752;28;20448;-75
2021/03/19 13:25:14;;;;;;;8.57;7.63;;;15.70;23.70;;;;;;5050497;28;20439;-75
2021/03/19 13:27:41;;;;;;;8.23;6.17;;;15.10;24.70;;;;;;5050381;28;20475;-75
2021/03/19 13:30:10;;;;;;;7.60;6.70;;;14.60;25.90;;;;;;5052182;28;20452;-75